Weather & Traffic



KLGB 270653Z AUTO 00000KT 10SM CLR 22/18 A2988 RMK AO2 SLP116 T02220183 TSNO


TAF KLGB 270531Z 2706/2806 30005KT P6SM SCT200 FM271200 VRB03KT P6SM BKN008 FM271600 19006KT P6SM SCT120 FM272300 29009KT P6SM SCT120 FM280500 VRB03KT P6SM SKC